createdAt,value
2019-04-05T00:01:15.385Z,1.8
2019-04-05T00:04:15.398Z,1.8
2019-04-05T00:07:15.469Z,1.8
2019-04-05T00:10:15.311Z,1.8
2019-04-05T00:13:15.701Z,1.8
2019-04-05T00:16:15.744Z,1.8
2019-04-05T00:19:15.373Z,1.8
2019-04-05T00:22:15.451Z,1.8
2019-04-05T00:25:15.620Z,1.8
2019-04-05T00:28:15.535Z,1.8
2019-04-05T00:31:15.567Z,1.8
2019-04-05T00:34:15.436Z,1.8
2019-04-05T00:37:15.371Z,1.8
2019-04-05T00:40:15.423Z,1.8
2019-04-05T00:43:15.471Z,1.8
2019-04-05T00:46:15.495Z,1.8
2019-04-05T00:49:15.463Z,1.8
2019-04-05T00:52:15.600Z,1.8
2019-04-05T00:55:15.329Z,1.8
2019-04-05T00:58:15.468Z,1.8
2019-04-05T01:01:15.624Z,1.8
2019-04-05T01:04:15.494Z,1.8
2019-04-05T01:07:15.614Z,1.8
2019-04-05T01:10:15.644Z,1.8
2019-04-05T01:13:15.550Z,1.8
2019-04-05T01:16:15.326Z,1.8
2019-04-05T01:19:15.329Z,1.8
2019-04-05T01:22:15.372Z,1.8
2019-04-05T01:25:15.460Z,1.8
2019-04-05T01:28:15.542Z,1.8
2019-04-05T01:31:15.297Z,1.8
2019-04-05T01:34:15.285Z,1.8
2019-04-05T01:37:15.359Z,1.8
2019-04-05T01:40:15.598Z,1.8
2019-04-05T01:43:15.479Z,1.8
2019-04-05T01:46:15.455Z,1.8
2019-04-05T01:49:15.286Z,1.8
2019-04-05T01:52:15.527Z,1.8
2019-04-05T01:55:15.418Z,1.8
2019-04-05T01:58:15.437Z,1.8
2019-04-05T02:01:15.748Z,1.8
2019-04-05T02:04:15.582Z,1.8
2019-04-05T02:07:15.458Z,1.8
2019-04-05T02:10:15.595Z,1.8
2019-04-05T02:13:15.384Z,1.8
2019-04-05T02:16:15.394Z,1.8
2019-04-05T02:19:15.454Z,1.8
2019-04-05T02:22:15.506Z,1.8
2019-04-05T02:25:15.306Z,1.8
2019-04-05T02:28:15.878Z,1.8
2019-04-05T02:31:15.555Z,1.8
2019-04-05T02:34:15.579Z,1.8
2019-04-05T02:37:15.337Z,1.8
2019-04-05T02:40:15.467Z,1.8
2019-04-05T02:43:15.578Z,1.8
2019-04-05T02:46:24.741Z,1.8
2019-04-05T02:49:15.476Z,1.8
2019-04-05T02:52:15.339Z,1.8
2019-04-05T02:55:15.391Z,1.8
2019-04-05T02:58:15.419Z,1.8
2019-04-05T03:01:15.465Z,1.8
2019-04-05T03:04:15.647Z,1.8
2019-04-05T03:07:15.601Z,1.8
2019-04-05T03:10:15.603Z,1.8
2019-04-05T03:13:15.424Z,1.8
2019-04-05T03:16:15.276Z,1.8
2019-04-05T03:19:15.482Z,1.8
2019-04-05T03:22:15.409Z,1.8
2019-04-05T03:25:15.494Z,1.8
2019-04-05T03:28:15.475Z,1.8
2019-04-05T03:31:15.423Z,1.8
2019-04-05T03:34:15.432Z,1.8
2019-04-05T03:37:15.653Z,1.8
2019-04-05T03:40:15.562Z,1.8
2019-04-05T03:43:15.521Z,1.8
2019-04-05T03:46:15.461Z,1.8
2019-04-05T03:49:15.590Z,1.8
2019-04-05T03:52:15.343Z,1.8
2019-04-05T03:55:15.304Z,1.8
2019-04-05T03:58:15.431Z,1.8
2019-04-05T04:01:15.485Z,1.8
2019-04-05T04:04:15.462Z,1.8
2019-04-05T04:07:15.500Z,1.8
2019-04-05T04:10:15.707Z,1.8
2019-04-05T04:13:15.500Z,1.8
2019-04-05T04:16:15.419Z,1.8
2019-04-05T04:19:15.288Z,1.8
2019-04-05T04:22:15.483Z,1.8
2019-04-05T04:25:15.530Z,1.8
2019-04-05T04:28:15.623Z,1.8
2019-04-05T04:31:15.433Z,1.8
2019-04-05T04:34:15.369Z,1.8
2019-04-05T04:37:15.391Z,1.8
2019-04-05T04:40:15.603Z,1.8
2019-04-05T04:43:15.499Z,1.8
2019-04-05T04:46:15.520Z,1.8
2019-04-05T04:49:15.326Z,1.8
2019-04-05T04:52:15.362Z,1.8
2019-04-05T04:55:15.342Z,1.8
2019-04-05T04:58:15.467Z,1.8
2019-04-05T05:01:15.572Z,1.8
2019-04-05T05:04:15.620Z,1.8
2019-04-05T05:07:15.218Z,1.8
2019-04-05T05:10:15.296Z,1.8
2019-04-05T05:13:15.403Z,1.8
2019-04-05T05:16:15.514Z,1.8
2019-04-05T05:19:15.514Z,1.8
2019-04-05T05:22:15.471Z,1.8
2019-04-05T05:25:15.297Z,1.8
2019-04-05T05:28:15.383Z,1.8
2019-04-05T05:31:15.360Z,1.8
2019-04-05T05:34:15.234Z,1.8
2019-04-05T05:37:15.435Z,1.8
2019-04-05T05:40:15.456Z,1.8
2019-04-05T05:43:15.203Z,1.8
2019-04-05T05:46:15.307Z,1.8
2019-04-05T05:49:15.345Z,1.8
2019-04-05T05:52:15.331Z,1.8
2019-04-05T05:55:15.533Z,1.8
2019-04-05T05:58:15.426Z,1.8
2019-04-05T06:01:15.266Z,1.9
2019-04-05T06:04:15.275Z,1.9
2019-04-05T06:07:15.265Z,1.9
2019-04-05T06:10:15.399Z,1.9
2019-04-05T06:13:15.473Z,1.9
2019-04-05T06:16:15.724Z,1.9
2019-04-05T06:19:15.913Z,1.9
2019-04-05T06:22:15.298Z,1.9
2019-04-05T06:25:15.314Z,1.9
2019-04-05T06:28:15.460Z,1.9
2019-04-05T06:31:15.352Z,1.9
2019-04-05T06:34:15.165Z,1.9
2019-04-05T06:37:15.329Z,1.9
2019-04-05T06:40:15.878Z,1.9
2019-04-05T06:43:15.310Z,1.9
2019-04-05T06:46:15.416Z,1.9
2019-04-05T06:49:15.495Z,1.9
2019-04-05T06:52:15.649Z,1.9
2019-04-05T06:55:15.177Z,1.9
2019-04-05T06:58:29.792Z,1.9
2019-04-05T07:01:15.527Z,1.9
2019-04-05T07:04:15.283Z,1.9
2019-04-05T07:07:18.339Z,1.9
2019-04-05T07:10:15.414Z,1.9
2019-04-05T07:13:15.247Z,1.9
2019-04-05T07:16:15.367Z,1.9
2019-04-05T07:19:15.325Z,1.9
2019-04-05T07:22:15.557Z,1.9
2019-04-05T07:25:15.183Z,1.9
2019-04-05T07:28:15.425Z,1.9
2019-04-05T07:31:15.194Z,1.9
2019-04-05T07:34:15.232Z,1.9
2019-04-05T07:37:15.264Z,1.9
2019-04-05T07:40:15.374Z,1.9
2019-04-05T07:43:15.313Z,1.9
2019-04-05T07:46:15.484Z,1.9
2019-04-05T07:49:15.399Z,1.9
2019-04-05T07:52:15.270Z,1.9
2019-04-05T07:55:15.290Z,1.9
2019-04-05T07:58:15.381Z,1.9
2019-04-05T08:01:15.361Z,1.9
2019-04-05T08:04:15.388Z,1.9
2019-04-05T08:07:15.398Z,1.9
2019-04-05T08:10:15.159Z,1.9
2019-04-05T08:13:15.198Z,1.9
2019-04-05T08:16:16.423Z,1.9
2019-04-05T08:19:15.495Z,1.9
2019-04-05T08:22:15.301Z,1.9
2019-04-05T08:25:15.636Z,1.9
2019-04-05T08:28:15.467Z,1.9
2019-04-05T08:31:15.622Z,1.9
2019-04-05T08:34:15.316Z,1.9
2019-04-05T08:37:15.358Z,1.9
2019-04-05T08:40:15.439Z,1.9
2019-04-05T08:43:15.383Z,1.9
2019-04-05T08:46:15.427Z,1.9
2019-04-05T08:49:15.357Z,1.9
2019-04-05T08:52:15.209Z,1.9
2019-04-05T08:55:15.251Z,1.9
2019-04-05T08:58:15.379Z,1.9
2019-04-05T09:01:15.288Z,2.1
2019-04-05T09:04:15.374Z,2.1
2019-04-05T09:07:15.294Z,2.1
2019-04-05T09:10:15.449Z,2.1
2019-04-05T09:13:15.314Z,2.1
2019-04-05T09:16:15.396Z,2.1
2019-04-05T09:19:24.487Z,2.1
2019-04-05T09:22:15.394Z,2.1
2019-04-05T09:25:15.406Z,2.1
2019-04-05T09:28:15.297Z,2.1
2019-04-05T09:31:15.187Z,2.1
2019-04-05T09:34:15.251Z,2.1
2019-04-05T09:37:15.514Z,2.1
2019-04-05T09:40:15.398Z,2.1
2019-04-05T09:43:15.329Z,2.1
2019-04-05T09:46:15.166Z,2.1
2019-04-05T09:49:15.207Z,2.1
2019-04-05T09:52:15.228Z,2.1
2019-04-05T09:55:15.386Z,2.1
2019-04-05T09:58:15.376Z,2.1
2019-04-05T10:01:15.491Z,2.2
2019-04-05T10:04:15.385Z,2.2
2019-04-05T10:07:15.177Z,2.2
2019-04-05T10:10:15.250Z,2.2
2019-04-05T10:13:15.225Z,2.2
2019-04-05T10:16:15.331Z,2.2
2019-04-05T10:19:15.351Z,2.2
2019-04-05T10:22:15.435Z,2.2
2019-04-05T10:25:15.253Z,2.2
2019-04-05T10:28:15.213Z,2.2
2019-04-05T10:31:15.309Z,2.2
2019-04-05T10:34:15.361Z,2.2
2019-04-05T10:37:15.374Z,2.2
2019-04-05T10:40:15.396Z,2.2
2019-04-05T10:43:15.116Z,2.2
2019-04-05T10:46:15.122Z,2.2
2019-04-05T10:49:15.656Z,2.2
2019-04-05T10:52:15.244Z,2.2
2019-04-05T10:55:15.336Z,2.2
2019-04-05T10:58:15.372Z,2.2
2019-04-05T11:01:15.249Z,2.2
2019-04-05T11:04:17.219Z,2.2
2019-04-05T11:07:15.255Z,2.2
2019-04-05T11:10:15.318Z,2.2
2019-04-05T11:13:15.412Z,2.2
2019-04-05T11:16:15.385Z,2.2
2019-04-05T11:19:15.258Z,2.2
2019-04-05T11:22:15.201Z,2.2
2019-04-05T11:25:15.339Z,2.2
2019-04-05T11:28:15.364Z,2.2
2019-04-05T11:31:15.284Z,2.2
2019-04-05T11:34:15.340Z,2.2
2019-04-05T11:37:20.047Z,2.2
2019-04-05T11:40:15.184Z,2.2
2019-04-05T11:43:15.350Z,2.2
2019-04-05T11:46:18.699Z,2.2
2019-04-05T11:49:15.305Z,2.2
2019-04-05T11:52:15.378Z,2.2
2019-04-05T11:55:19.156Z,2.2
2019-04-05T11:58:15.219Z,2.2
2019-04-05T12:01:16.808Z,2.6
2019-04-05T12:04:15.246Z,2.6
2019-04-05T12:07:15.283Z,2.6
2019-04-05T12:10:20.002Z,2.6
2019-04-05T12:13:15.261Z,2.6
2019-04-05T12:16:15.152Z,2.6
2019-04-05T13:00:49.264Z,3.9
2019-04-05T13:03:52.347Z,3.9
2019-04-05T13:06:54.079Z,3.9
2019-04-05T13:09:49.214Z,3.9
2019-04-05T13:12:52.429Z,3.9
2019-04-05T13:15:48.986Z,3.9
2019-04-05T13:18:49.113Z,3.9
2019-04-05T13:21:49.145Z,3.9
2019-04-05T13:24:49.233Z,3.9
2019-04-05T13:27:48.922Z,3.9
2019-04-05T13:30:49.658Z,3.9
2019-04-05T13:33:49.011Z,3.9
2019-04-05T13:36:49.215Z,3.9
2019-04-05T13:39:49.024Z,3.9
2019-04-05T13:42:49.108Z,3.9
2019-04-05T13:45:48.951Z,3.9
2019-04-05T13:48:48.968Z,3.9
2019-04-05T13:51:48.992Z,3.9
2019-04-05T13:54:49.068Z,3.9
2019-04-05T13:57:49.034Z,3.9
2019-04-05T14:00:50.243Z,3.8
2019-04-05T14:03:51.029Z,3.8
2019-04-05T14:06:48.922Z,3.8
2019-04-05T14:09:49.058Z,3.8
2019-04-05T14:12:49.024Z,3.8
2019-04-05T14:15:48.992Z,3.8
2019-04-05T14:18:50.225Z,3.8
2019-04-05T14:21:54.130Z,3.8
2019-04-05T14:24:57.075Z,3.8
2019-04-05T14:27:48.923Z,3.8
2019-04-05T14:30:49.094Z,3.8
2019-04-05T14:33:49.086Z,3.8
2019-04-05T14:36:52.698Z,3.8
2019-04-05T16:00:54.423Z,4.1
2019-04-05T16:03:54.608Z,4.1
2019-04-05T16:06:54.691Z,4.1
2019-04-05T16:09:54.579Z,4.1
2019-04-05T16:12:54.629Z,4.1
2019-04-05T16:15:54.784Z,4.1
2019-04-05T16:18:54.636Z,4.1
2019-04-05T16:21:54.520Z,4.1
2019-04-05T16:24:54.590Z,4.1
2019-04-05T16:27:54.670Z,4.1
2019-04-05T16:30:54.643Z,4.1
2019-04-05T16:33:54.654Z,4.1
2019-04-05T16:36:54.635Z,4.1
2019-04-05T16:39:54.537Z,4.1
2019-04-05T16:43:03.786Z,4.1
2019-04-05T16:45:54.648Z,4.1
2019-04-05T16:48:54.879Z,4.1
2019-04-05T17:00:11.840Z,3.6
2019-04-05T17:03:11.788Z,3.6
2019-04-05T17:06:11.788Z,3.6
2019-04-05T17:09:11.644Z,3.6
2019-04-05T17:12:11.829Z,3.6
2019-04-05T17:15:11.716Z,3.6
2019-04-05T17:18:11.726Z,3.6
2019-04-05T17:21:11.773Z,3.6
2019-04-05T17:24:11.925Z,3.6
2019-04-05T17:27:11.637Z,3.6
2019-04-05T17:30:11.591Z,3.6
2019-04-05T17:33:11.607Z,3.6
2019-04-05T17:36:11.760Z,3.6
2019-04-05T17:39:11.981Z,3.6
2019-04-05T17:42:11.864Z,3.6
2019-04-05T17:45:11.655Z,3.6
2019-04-05T17:48:11.700Z,3.6
2019-04-05T17:51:11.755Z,3.6
2019-04-05T17:54:11.756Z,3.6
2019-04-05T17:57:11.617Z,3.6
2019-04-05T18:00:12.049Z,3.4
2019-04-05T18:03:11.909Z,3.4
2019-04-05T18:06:11.705Z,3.4
2019-04-05T18:09:11.748Z,3.4
2019-04-05T18:12:11.767Z,3.4
2019-04-05T18:15:11.707Z,3.4
2019-04-05T18:18:11.762Z,3.4
2019-04-05T18:21:11.795Z,3.4
2019-04-05T18:24:11.950Z,3.4
2019-04-05T18:27:11.640Z,3.4
2019-04-05T18:30:12.121Z,3.4
2019-04-05T18:33:11.803Z,3.4
2019-04-05T18:36:11.778Z,3.4
2019-04-05T18:39:11.797Z,3.4
2019-04-05T18:42:11.925Z,3.4
2019-04-05T18:45:11.574Z,3.4
2019-04-05T18:48:11.600Z,3.4
2019-04-05T18:51:11.776Z,3.4
2019-04-05T18:54:11.651Z,3.4
2019-04-05T18:57:14.800Z,3.4
2019-04-05T19:00:11.771Z,3.5
2019-04-05T19:03:11.826Z,3.5
2019-04-05T19:06:11.791Z,3.5
2019-04-05T19:09:12.598Z,3.5
2019-04-05T19:12:11.685Z,3.5
2019-04-05T19:15:11.603Z,3.5
2019-04-05T19:18:11.632Z,3.5
2019-04-05T19:21:11.794Z,3.5
2019-04-05T19:24:11.832Z,3.5
2019-04-05T19:27:11.525Z,3.5
2019-04-05T19:51:11.650Z,3.5
2019-04-05T19:54:11.739Z,3.5
2019-04-05T19:57:11.703Z,3.5
2019-04-05T20:00:11.830Z,3.5
2019-04-05T20:03:11.803Z,3.5
2019-04-05T20:06:11.723Z,3.5
2019-04-05T20:09:11.705Z,3.5
2019-04-05T20:12:11.663Z,3.5
2019-04-05T20:15:11.617Z,3.5
2019-04-05T20:18:11.670Z,3.5
2019-04-05T20:21:11.683Z,3.5
2019-04-05T20:24:14.945Z,3.5
2019-04-05T20:27:11.739Z,3.5
2019-04-05T20:30:11.716Z,3.5
2019-04-05T20:33:11.703Z,3.5
2019-04-05T20:36:11.743Z,3.5
2019-04-05T20:39:11.780Z,3.5
2019-04-05T20:42:11.761Z,3.5
2019-04-05T20:45:11.910Z,3.5
2019-04-05T20:48:11.754Z,3.5
2019-04-05T20:51:11.545Z,3.5
2019-04-05T20:54:11.694Z,3.5
2019-04-05T20:57:11.608Z,3.5
2019-04-05T21:00:11.657Z,3.4
2019-04-05T21:03:11.698Z,3.4
2019-04-05T21:06:11.897Z,3.4
2019-04-05T21:09:11.771Z,3.4
2019-04-05T21:12:11.756Z,3.4
2019-04-05T21:15:11.559Z,3.4
2019-04-05T21:18:11.560Z,3.4
2019-04-05T21:21:11.618Z,3.4
2019-04-05T21:24:12.017Z,3.4
2019-04-05T21:27:13.064Z,3.4
2019-04-05T21:30:11.689Z,3.4
2019-04-05T21:33:11.818Z,3.4
2019-04-05T21:36:11.582Z,3.4
2019-04-05T21:39:11.444Z,3.4
2019-04-05T21:42:11.617Z,3.4
2019-04-05T21:45:11.657Z,3.4
2019-04-05T21:48:11.739Z,3.4
2019-04-05T21:51:11.796Z,3.4
2019-04-05T21:54:11.683Z,3.4
2019-04-05T21:57:11.584Z,3.4
2019-04-05T22:00:11.530Z,3.4
2019-04-05T22:03:11.604Z,3.4
2019-04-05T22:06:11.704Z,3.4
2019-04-05T22:09:11.713Z,3.4
2019-04-05T22:12:11.807Z,3.4
2019-04-05T22:15:11.510Z,3.4
2019-04-05T22:18:12.574Z,3.4
2019-04-05T22:21:11.583Z,3.4
2019-04-05T22:24:11.814Z,3.4
2019-04-05T22:27:11.650Z,3.4
2019-04-05T22:30:11.745Z,3.4
2019-04-05T22:33:12.382Z,3.4
2019-04-05T22:36:11.811Z,3.4
2019-04-05T22:39:11.758Z,3.4
2019-04-05T22:42:11.817Z,3.4
2019-04-05T22:45:11.657Z,3.4
2019-04-05T22:48:11.791Z,3.4
2019-04-05T22:51:11.825Z,3.4
2019-04-05T22:54:11.786Z,3.4
2019-04-05T22:57:11.688Z,3.4
2019-04-05T23:00:11.639Z,3.4
2019-04-05T23:03:11.564Z,3.4
2019-04-05T23:06:11.648Z,3.4
2019-04-05T23:09:11.640Z,3.4
2019-04-05T23:12:11.642Z,3.4
2019-04-05T23:15:11.844Z,3.4
2019-04-05T23:18:11.824Z,3.4
2019-04-05T23:21:11.703Z,3.4
2019-04-05T23:24:11.680Z,3.4
2019-04-05T23:27:11.852Z,3.4
2019-04-05T23:30:11.973Z,3.4
2019-04-05T23:33:11.829Z,3.4
2019-04-05T23:36:11.710Z,3.4
2019-04-05T23:39:12.039Z,3.4
2019-04-05T23:42:11.496Z,3.4
2019-04-05T23:45:11.545Z,3.4
2019-04-05T23:48:11.541Z,3.4
2019-04-05T23:51:11.481Z,3.4
2019-04-05T23:54:11.774Z,3.4
2019-04-05T23:57:11.721Z,3.4
